createdAt,value
2018-06-01T00:00:19.783Z,99999.77
2018-06-01T00:02:47.423Z,100020.55
2018-06-01T00:05:14.879Z,100027.05
2018-06-01T00:07:42.323Z,100027.85
2018-06-01T00:10:09.799Z,100007.75
2018-06-01T00:12:37.244Z,99982.84
2018-06-01T00:15:04.755Z,99972.92
2018-06-01T00:17:32.203Z,99998.27
2018-06-01T00:19:59.658Z,100014.95
2018-06-01T00:22:27.124Z,100007.23
2018-06-01T00:24:54.579Z,100009.73
2018-06-01T00:27:22.213Z,100029.42
2018-06-01T00:29:49.668Z,100053.14
2018-06-01T00:32:17.120Z,100077.22
2018-06-01T00:34:44.607Z,100117.33
2018-06-01T00:37:12.059Z,100169.88
2018-06-01T00:39:39.670Z,100210.05
2018-06-01T00:42:07.128Z,100219.30
2018-06-01T00:44:34.596Z,100237.94
2018-06-01T00:47:02.099Z,100264.45
2018-06-01T00:49:29.560Z,100271.77
2018-06-01T00:51:57.274Z,100268.33
2018-06-01T00:54:24.729Z,100258.70
2018-06-01T00:56:52.177Z,100243.38
2018-06-01T00:59:19.640Z,100219.41
2018-06-01T01:01:47.091Z,100224.52
2018-06-01T01:04:14.668Z,100232.99
2018-06-01T01:06:42.112Z,100205.42
2018-06-01T01:09:09.568Z,100213.47
2018-06-01T01:11:37.040Z,100213.52
2018-06-01T01:14:04.491Z,100211.26
2018-06-01T01:16:31.985Z,100210.17
2018-06-01T01:18:59.432Z,100197.50
2018-06-01T01:21:26.887Z,100196.48
2018-06-01T01:23:54.351Z,100210.27
2018-06-01T01:26:21.816Z,100205.31
2018-06-01T01:28:49.308Z,100194.53
2018-06-01T01:31:16.785Z,100174.80
2018-06-01T01:33:44.238Z,100162.67
2018-06-01T01:36:11.728Z,100156.27
2018-06-01T01:38:39.176Z,100142.09
2018-06-01T01:41:06.645Z,100123.97
2018-06-01T01:43:34.115Z,100119.56
2018-06-01T01:46:01.560Z,100129.16
2018-06-01T01:48:29.024Z,100140.04
2018-06-01T01:50:56.464Z,100137.62
2018-06-01T01:53:24.160Z,100140.31
2018-06-01T01:55:51.716Z,100131.21
2018-06-01T01:58:19.172Z,100125.42
2018-06-01T02:00:46.635Z,100112.47
2018-06-01T02:03:14.100Z,100097.14
2018-06-01T02:05:41.736Z,100093.47
2018-06-01T02:08:09.183Z,100097.52
2018-06-01T02:10:36.644Z,100099.83
2018-06-01T02:13:04.107Z,100100.44
2018-06-01T02:15:31.568Z,100113.27
2018-06-01T02:17:59.193Z,100116.44
2018-06-01T02:20:26.716Z,100121.65
2018-06-01T02:22:54.099Z,100119.08
2018-06-01T02:25:21.565Z,100121.81
2018-06-01T02:27:49.023Z,100114.52
2018-06-01T02:30:16.507Z,100115.23
2018-06-01T02:32:43.968Z,100120.81
2018-06-01T02:35:11.412Z,100121.86
2018-06-01T02:37:38.896Z,100112.84
2018-06-01T02:40:06.353Z,100109.87
2018-06-01T02:42:33.972Z,100114.52
2018-06-01T02:45:01.428Z,100100.48
2018-06-01T02:47:28.889Z,100092.20
2018-06-01T02:49:56.359Z,100076.28
2018-06-01T02:52:23.813Z,100064.70
2018-06-01T02:54:51.284Z,100055.62
2018-06-01T02:57:18.736Z,100049.05
2018-06-01T02:59:46.196Z,100041.55
2018-06-01T03:02:13.680Z,100052.36
2018-06-01T03:04:41.120Z,100052.08
2018-06-01T03:07:11.540Z,100043.92
2018-06-01T03:09:38.988Z,100046.68
2018-06-01T03:12:06.521Z,100040.67
2018-06-01T03:14:33.987Z,100049.64
2018-06-01T03:17:01.431Z,100061.11
2018-06-01T03:19:29.083Z,100074.25
2018-06-01T03:21:56.527Z,100083.63
2018-06-01T03:24:23.975Z,100086.21
2018-06-01T03:26:51.444Z,100094.45
2018-06-01T03:29:18.903Z,100093.61
2018-06-01T03:31:46.741Z,100093.74
2018-06-01T03:34:14.187Z,100100.25
2018-06-01T03:36:41.653Z,100110.98
2018-06-01T03:39:09.151Z,100108.84
2018-06-01T03:41:36.600Z,100129.91
2018-06-01T03:44:04.299Z,100134.70
2018-06-01T03:46:31.749Z,100149.91
2018-06-01T03:48:59.196Z,100168.41
2018-06-01T03:51:26.664Z,100177.47
2018-06-01T03:53:54.120Z,100182.25
2018-06-01T03:56:21.843Z,100183.82
2018-06-01T03:58:49.288Z,100187.44
2018-06-01T04:01:16.756Z,100185.61
2018-06-01T04:03:44.224Z,100194.42
2018-06-01T04:06:11.676Z,100189.55
2018-06-01T04:08:39.160Z,100197.04
2018-06-01T04:11:06.613Z,100203.03
2018-06-01T04:13:34.059Z,100205.12
2018-06-01T04:16:01.528Z,100213.88
2018-06-01T04:18:28.988Z,100211.62
2018-06-01T04:20:56.588Z,100222.30
2018-06-01T04:23:24.087Z,100220.69
2018-06-01T04:25:51.544Z,100229.42
2018-06-01T04:28:19.011Z,100231.20
2018-06-01T04:30:46.460Z,100231.95
2018-06-01T04:33:14.092Z,100232.41
2018-06-01T04:35:41.584Z,100233.47
2018-06-01T04:38:09.048Z,100235.73
2018-06-01T04:40:36.520Z,100231.26
2018-06-01T04:43:03.963Z,100231.20
2018-06-01T04:45:31.547Z,100236.38
2018-06-01T04:47:59.005Z,100243.57
2018-06-01T04:50:26.451Z,100248.30
2018-06-01T04:52:53.923Z,100252.94
2018-06-01T04:55:21.372Z,100247.06
2018-06-01T04:57:49.228Z,100252.03
2018-06-01T05:00:16.677Z,100261.95
2018-06-01T05:02:44.125Z,100265.98
2018-06-01T05:05:11.591Z,100275.53
2018-06-01T05:07:39.046Z,100274.41
2018-06-01T05:10:06.528Z,100282.48
2018-06-01T05:12:33.977Z,100282.53
2018-06-01T05:15:01.426Z,100279.80
2018-06-01T05:17:28.908Z,100274.63
2018-06-01T05:19:56.352Z,100284.82
2018-06-01T05:22:23.968Z,100280.27
2018-06-01T05:24:51.412Z,100274.07
2018-06-01T05:27:18.855Z,100277.52
2018-06-01T05:29:46.316Z,100276.98
2018-06-01T05:32:13.766Z,100284.30
2018-06-01T05:34:41.268Z,100290.52
2018-06-01T05:37:08.716Z,100292.14
2018-06-01T05:39:36.156Z,100293.97
2018-06-01T05:42:03.621Z,100298.33
2018-06-01T05:44:31.079Z,100301.84
2018-06-01T05:46:58.799Z,100301.58
2018-06-01T05:49:26.247Z,100300.17
2018-06-01T05:51:53.689Z,100304.64
2018-06-01T05:54:21.195Z,100306.25
2018-06-01T05:56:48.625Z,100305.50
2018-06-01T05:59:16.091Z,100305.41
2018-06-01T06:01:43.536Z,100308.69
2018-06-01T06:04:11.043Z,100310.80
2018-06-01T06:06:38.516Z,100303.61
2018-06-01T06:09:05.968Z,100305.00
2018-06-01T06:11:33.444Z,100317.79
2018-06-01T06:14:00.892Z,100321.95
2018-06-01T06:16:28.343Z,100323.88
2018-06-01T06:18:55.811Z,100320.14
2018-06-01T06:21:23.267Z,100321.50
2018-06-01T06:23:51.160Z,100325.21
2018-06-01T06:26:18.612Z,100330.58
2018-06-01T06:28:46.075Z,100333.19
2018-06-01T06:31:13.544Z,100331.55
2018-06-01T06:33:40.995Z,100334.27
2018-06-01T06:36:08.496Z,100329.34
2018-06-01T06:38:35.939Z,100334.09
2018-06-01T06:41:03.403Z,100333.84
2018-06-01T06:43:30.888Z,100335.01
2018-06-01T06:45:58.353Z,100329.43
2018-06-01T06:48:25.840Z,100324.45
2018-06-01T06:50:53.288Z,100325.72
2018-06-01T06:53:20.735Z,100326.88
2018-06-01T06:55:48.204Z,100330.06
2018-06-01T06:58:15.654Z,100327.88
2018-06-01T07:00:43.300Z,100326.26
2018-06-01T07:03:10.752Z,100329.29
2018-06-01T07:05:38.207Z,100330.91
2018-06-01T07:08:05.672Z,100333.02
2018-06-01T07:10:33.140Z,100336.16
2018-06-01T07:13:01.054Z,100325.36
2018-06-01T07:15:28.520Z,100334.47
2018-06-01T07:17:55.968Z,100338.37
2018-06-01T07:20:23.501Z,100339.72
2018-06-01T07:22:50.924Z,100339.77
2018-06-01T07:25:18.512Z,100338.86
2018-06-01T07:27:46.022Z,100338.05
2018-06-01T07:30:13.427Z,100336.87
2018-06-01T07:32:40.898Z,100331.98
2018-06-01T07:35:08.352Z,100332.64
2018-06-01T07:37:36.088Z,100337.07
2018-06-01T07:40:03.574Z,100337.15
2018-06-01T07:42:31.027Z,100331.34
2018-06-01T07:44:58.487Z,100338.09
2018-06-01T07:47:25.963Z,100334.41
2018-06-01T07:49:54.035Z,100337.77
2018-06-01T07:52:21.482Z,100332.80
2018-06-01T07:54:48.928Z,100335.87
2018-06-01T07:57:16.396Z,100345.05
2018-06-01T07:59:43.844Z,100339.05
2018-06-01T08:02:11.688Z,100341.77
2018-06-01T08:04:39.213Z,100337.83
2018-06-01T08:07:06.659Z,100344.61
2018-06-01T08:09:34.127Z,100343.55
2018-06-01T08:12:01.576Z,100342.69
2018-06-01T08:14:29.255Z,100352.65
2018-06-01T08:16:56.708Z,100348.10
2018-06-01T08:19:24.153Z,100348.53
2018-06-01T08:21:51.627Z,100352.75
2018-06-01T08:24:19.075Z,100354.61
2018-06-01T08:26:46.552Z,100355.06
2018-06-01T08:29:14.000Z,100358.02
2018-06-01T08:31:41.452Z,100358.58
2018-06-01T08:34:08.924Z,100355.50
2018-06-01T08:36:36.372Z,100357.26
2018-06-01T08:39:03.856Z,100363.89
2018-06-01T08:41:31.300Z,100363.11
2018-06-01T08:43:58.744Z,100366.68
2018-06-01T08:46:26.261Z,100368.14
2018-06-01T08:48:53.680Z,100361.58
2018-06-01T08:51:21.392Z,100360.53
2018-06-01T08:53:48.839Z,100359.73
2018-06-01T08:56:16.640Z,100358.98
2018-06-01T08:58:44.116Z,100361.84
2018-06-01T09:01:11.564Z,100363.41
2018-06-01T09:03:39.044Z,100362.08
2018-06-01T09:06:06.504Z,100355.13
2018-06-01T09:08:33.959Z,100352.02
2018-06-01T09:11:01.420Z,100355.60
2018-06-01T09:13:28.878Z,100347.09
2018-06-01T09:15:56.504Z,100351.72
2018-06-01T09:18:23.952Z,100351.53
2018-06-01T09:20:51.419Z,100355.08
2018-06-01T09:23:18.891Z,100358.98
2018-06-01T09:25:46.336Z,100350.80
2018-06-01T09:28:14.025Z,100345.32
2018-06-01T09:30:41.470Z,100347.31
2018-06-01T09:33:08.927Z,100345.73
2018-06-01T09:35:36.412Z,100351.61
2018-06-01T09:38:03.856Z,100349.66
2018-06-01T09:40:31.368Z,100349.67
2018-06-01T09:42:58.836Z,100347.64
2018-06-01T09:45:26.281Z,100345.52
2018-06-01T09:47:53.755Z,100348.51
2018-06-01T09:50:21.216Z,100352.92
2018-06-01T09:52:48.975Z,100348.33
2018-06-01T09:55:16.428Z,100355.08
2018-06-01T09:57:43.884Z,100353.41
2018-06-01T10:00:11.348Z,100356.13
2018-06-01T10:02:39.155Z,100349.44
2018-06-01T10:05:06.804Z,100355.44
2018-06-01T10:07:34.264Z,100357.12
2018-06-01T10:10:07.208Z,100358.69
2018-06-01T10:12:34.671Z,100357.93
2018-06-01T10:15:02.119Z,100361.28
2018-06-01T10:17:29.591Z,100356.71
2018-06-01T10:19:57.035Z,100360.22
2018-06-01T10:22:24.579Z,100364.58
2018-06-01T10:24:52.052Z,100366.88
2018-06-01T10:27:19.499Z,100360.56
2018-06-01T10:29:46.979Z,100359.97
2018-06-01T10:32:14.437Z,100364.22
2018-06-01T10:34:41.937Z,100362.22
2018-06-01T10:37:09.388Z,100358.84
2018-06-01T10:39:36.897Z,100358.20
2018-06-01T10:42:04.320Z,100356.27
2018-06-01T10:44:31.772Z,100350.98
2018-06-01T10:46:59.272Z,100343.27
2018-06-01T10:49:26.723Z,100357.86
2018-06-01T10:51:54.183Z,100355.27
2018-06-01T10:54:21.693Z,100360.32
2018-06-01T10:56:49.103Z,100357.48
2018-06-01T10:59:16.773Z,100356.22
2018-06-01T11:01:44.243Z,100354.59
2018-06-01T11:04:11.700Z,100348.27
2018-06-01T11:06:39.180Z,100357.81
2018-06-01T11:09:06.627Z,100359.81
2018-06-01T11:11:34.433Z,100361.92
2018-06-01T11:14:01.889Z,100358.03
2018-06-01T11:16:29.341Z,100359.11
2018-06-01T11:18:56.849Z,100353.80
2018-06-01T11:21:24.314Z,100350.44
2018-06-01T11:23:51.807Z,100351.70
2018-06-01T11:26:19.260Z,100352.87
2018-06-01T11:28:46.708Z,100351.28
2018-06-01T11:31:14.208Z,100352.37
2018-06-01T11:33:41.656Z,100354.41
2018-06-01T11:36:09.347Z,100352.50
2018-06-01T11:38:36.788Z,100350.62
2018-06-01T11:41:04.233Z,100354.48
2018-06-01T11:43:31.708Z,100353.63
2018-06-01T11:45:59.160Z,100349.78
2018-06-01T11:48:26.763Z,100352.97
2018-06-01T11:50:54.233Z,100353.13
2018-06-01T11:53:21.679Z,100345.39
2018-06-01T11:55:49.151Z,100351.30
2018-06-01T11:58:16.604Z,100353.23
2018-06-01T12:00:44.076Z,100349.80
2018-06-01T12:03:12.410Z,100349.62
2018-06-01T12:05:39.859Z,100340.52
2018-06-01T12:08:07.345Z,100340.84
2018-06-01T12:10:34.796Z,100347.94
2018-06-01T12:13:02.404Z,100345.44
2018-06-01T12:15:29.870Z,100348.45
2018-06-01T12:17:57.315Z,100345.34
2018-06-01T12:20:24.792Z,100344.53
2018-06-01T12:22:52.240Z,100341.92
2018-06-01T12:25:19.968Z,100346.00
2018-06-01T12:27:47.422Z,100347.77
2018-06-01T12:30:14.868Z,100348.20
2018-06-01T12:32:42.336Z,100356.56
2018-06-01T12:35:09.801Z,100352.30
2018-06-01T12:37:37.590Z,100355.94
2018-06-01T12:40:05.050Z,100364.89
2018-06-01T12:42:32.500Z,100361.31
2018-06-01T12:44:59.967Z,100359.29
2018-06-01T12:47:27.427Z,100365.30
2018-06-01T12:49:54.913Z,100361.73
2018-06-01T12:52:22.367Z,100363.55
2018-06-01T12:54:49.855Z,100369.58
2018-06-01T12:57:17.324Z,100369.54
2018-06-01T12:59:44.771Z,100373.56
2018-06-01T13:02:12.252Z,100365.85
2018-06-01T13:04:39.735Z,100366.91
2018-06-01T13:07:07.208Z,100361.11
2018-06-01T13:09:34.692Z,100362.39
2018-06-01T13:12:02.148Z,100357.53
2018-06-01T13:14:29.624Z,100362.04
2018-06-01T13:16:57.100Z,100357.64
2018-06-01T13:19:24.553Z,100351.73
2018-06-01T13:21:52.040Z,100346.39
2018-06-01T13:24:19.484Z,100349.42
2018-06-01T13:26:46.948Z,100349.16
2018-06-01T13:29:14.412Z,100353.50
2018-06-01T13:31:41.860Z,100350.66
2018-06-01T13:34:09.328Z,100352.33
2018-06-01T13:36:36.797Z,100345.34
2018-06-01T13:39:04.252Z,100353.66
2018-06-01T13:41:31.728Z,100354.17
2018-06-01T13:43:59.175Z,100359.83
2018-06-01T13:46:26.621Z,100363.23
2018-06-01T13:48:54.092Z,100362.56
2018-06-01T13:51:21.537Z,100359.99
2018-06-01T13:53:49.012Z,100352.58
2018-06-01T13:56:16.492Z,100356.80
2018-06-01T13:58:43.943Z,100360.39
2018-06-01T14:01:11.399Z,100362.03
2018-06-01T14:03:38.863Z,100357.05
2018-06-01T14:06:06.308Z,100361.14
2018-06-01T14:08:33.755Z,100366.41
2018-06-01T14:11:01.228Z,100362.17
2018-06-01T14:13:28.676Z,100364.44
2018-06-01T14:15:56.234Z,100375.11
2018-06-01T14:18:23.700Z,100375.42
2018-06-01T14:20:51.149Z,100382.48
2018-06-01T14:23:18.607Z,100381.73
2018-06-01T14:25:46.092Z,100371.61
2018-06-01T14:28:13.571Z,100380.33
2018-06-01T14:30:41.024Z,100375.11
2018-06-01T14:33:08.503Z,100372.80
2018-06-01T14:35:35.948Z,100374.72
2018-06-01T14:38:03.401Z,100377.19
2018-06-01T14:40:31.249Z,100359.84
2018-06-01T14:42:58.691Z,100355.63
2018-06-01T14:45:26.137Z,100346.27
2018-06-01T14:47:54.137Z,100354.22
2018-06-01T14:50:21.583Z,100349.91
2018-06-01T14:52:49.028Z,100336.73
2018-06-01T14:55:16.632Z,100344.91
2018-06-01T14:57:44.100Z,100346.72
2018-06-01T15:00:11.555Z,100352.63
2018-06-01T15:02:39.410Z,100349.59
2018-06-01T15:05:06.856Z,100347.49
2018-06-01T15:07:34.304Z,100356.52
2018-06-01T15:10:01.968Z,100354.75
2018-06-01T15:12:29.412Z,100363.84
2018-06-01T15:14:56.867Z,100363.13
2018-06-01T15:17:24.602Z,100354.94
2018-06-01T15:19:52.055Z,100355.81
2018-06-01T15:22:19.508Z,100353.19
2018-06-01T15:24:47.001Z,100363.03
2018-06-01T15:27:14.443Z,100359.03
2018-06-01T15:29:41.891Z,100362.85
2018-06-01T15:32:09.560Z,100357.47
2018-06-01T15:34:37.007Z,100349.31
2018-06-01T15:37:04.474Z,100352.88
2018-06-01T15:39:31.965Z,100351.33
2018-06-01T15:41:59.411Z,100353.78
2018-06-01T15:44:26.859Z,100357.47
2018-06-01T15:46:54.527Z,100349.02
2018-06-01T15:49:21.979Z,100356.17
2018-06-01T15:51:49.452Z,100353.67
2018-06-01T15:54:16.935Z,100351.96
2018-06-01T15:56:44.385Z,100357.96
2018-06-01T15:59:11.839Z,100356.50
2018-06-01T16:01:39.556Z,100360.44
2018-06-01T16:04:07.104Z,100355.25
2018-06-01T16:06:34.566Z,100355.92
2018-06-01T16:09:02.049Z,100355.61
2018-06-01T16:11:29.491Z,100354.38
2018-06-01T16:13:56.960Z,100357.00
2018-06-01T16:16:24.436Z,100361.44
2018-06-01T16:18:51.899Z,100357.66
2018-06-01T16:21:19.368Z,100364.22
2018-06-01T16:23:47.083Z,100366.32
2018-06-01T16:26:14.528Z,100365.65
2018-06-01T16:28:41.976Z,100362.63
2018-06-01T16:31:09.461Z,100364.70
2018-06-01T16:33:36.907Z,100369.98
2018-06-01T16:36:04.352Z,100372.11
2018-06-01T16:38:32.032Z,100369.23
2018-06-01T16:40:59.534Z,100371.50
2018-06-01T16:43:26.980Z,100368.56
2018-06-01T16:45:54.460Z,100370.13
2018-06-01T16:48:21.939Z,100364.25
2018-06-01T16:50:49.873Z,100364.05
2018-06-01T16:53:17.321Z,100362.78
2018-06-01T16:55:45.200Z,100363.98
2018-06-01T16:58:12.695Z,100362.97
2018-06-01T17:00:40.143Z,100367.01
2018-06-01T17:03:07.793Z,100366.80
2018-06-01T17:05:35.253Z,100359.25
2018-06-01T17:08:02.704Z,100363.58
2018-06-01T17:10:30.188Z,100363.27
2018-06-01T17:12:57.641Z,100359.79
2018-06-01T17:15:25.387Z,100356.28
2018-06-01T17:17:52.835Z,100359.34
2018-06-01T17:20:20.378Z,100358.48
2018-06-01T17:22:47.882Z,100353.62
2018-06-01T17:25:15.328Z,100354.92
2018-06-01T17:27:42.816Z,100353.11
2018-06-01T17:30:10.280Z,100354.38
2018-06-01T17:32:37.748Z,100358.56
2018-06-01T17:35:05.225Z,100358.18
2018-06-01T17:37:32.685Z,100371.94
2018-06-01T17:40:00.283Z,100376.11
2018-06-01T17:42:27.732Z,100375.23
2018-06-01T17:44:55.205Z,100376.20
2018-06-01T17:47:22.706Z,100380.34
2018-06-01T17:49:50.165Z,100382.51
2018-06-01T17:52:17.658Z,100385.56
2018-06-01T17:54:46.368Z,100386.35
2018-06-01T17:57:13.812Z,100386.80
2018-06-01T17:59:41.283Z,100393.21
2018-06-01T18:02:08.727Z,100391.91
2018-06-01T18:04:36.399Z,100392.78
2018-06-01T18:07:03.884Z,100391.39
2018-06-01T18:09:31.336Z,100400.85
2018-06-01T18:11:58.807Z,100397.63
2018-06-01T18:14:26.283Z,100399.86
2018-06-01T18:16:53.764Z,100404.34
2018-06-01T18:19:21.216Z,100403.69
2018-06-01T18:21:48.664Z,100404.80
2018-06-01T18:24:16.133Z,100405.72
2018-06-01T18:26:43.585Z,100412.20
2018-06-01T18:29:11.332Z,100418.70
2018-06-01T18:31:38.783Z,100419.64
2018-06-01T18:34:06.247Z,100415.70
2018-06-01T18:36:33.716Z,100413.92
2018-06-01T18:39:01.165Z,100413.67
2018-06-01T18:41:28.884Z,100417.82
2018-06-01T18:43:56.343Z,100414.02
2018-06-01T18:46:23.788Z,100414.00
2018-06-01T18:48:51.268Z,100420.64
2018-06-01T18:51:19.119Z,100419.66
2018-06-01T18:53:46.952Z,100422.09
2018-06-01T18:56:14.450Z,100427.31
2018-06-01T18:58:41.863Z,100429.77
2018-06-01T19:01:09.335Z,100418.81
2018-06-01T19:03:36.804Z,100415.92
2018-06-01T19:06:04.400Z,100423.98
2018-06-01T19:08:31.879Z,100423.80
2018-06-01T19:10:59.340Z,100418.50
2018-06-01T19:13:26.812Z,100416.36
2018-06-01T19:15:54.265Z,100420.45
2018-06-01T19:18:21.947Z,100419.60
2018-06-01T19:20:49.394Z,100420.49
2018-06-01T19:23:16.859Z,100418.81
2018-06-01T19:25:44.328Z,100417.81
2018-06-01T19:28:11.791Z,100425.88
2018-06-01T19:30:39.504Z,100427.44
2018-06-01T19:33:06.951Z,100437.02
2018-06-01T19:35:34.412Z,100437.80
2018-06-01T19:38:01.876Z,100441.16
2018-06-01T19:40:29.326Z,100443.66
2018-06-01T19:42:57.064Z,100441.59
2018-06-01T19:45:24.508Z,100441.21
2018-06-01T19:47:51.987Z,100440.22
2018-06-01T19:50:19.463Z,100442.71
2018-06-01T19:52:46.912Z,100443.00
2018-06-01T19:55:14.487Z,100443.81
2018-06-01T19:57:41.935Z,100450.84
2018-06-01T20:00:09.384Z,100458.75
2018-06-01T20:02:36.864Z,100456.52
2018-06-01T20:05:04.311Z,100461.18
2018-06-01T20:07:31.964Z,100455.61
2018-06-01T20:09:59.412Z,100467.26
2018-06-01T20:12:26.871Z,100475.27
2018-06-01T20:14:54.364Z,100475.22
2018-06-01T20:17:23.805Z,100472.04
2018-06-01T20:19:51.979Z,100484.80
2018-06-01T20:22:19.478Z,100486.17
2018-06-01T20:24:46.901Z,100481.84
2018-06-01T20:27:14.364Z,100486.16
2018-06-01T20:29:41.827Z,100483.52
2018-06-01T20:32:09.553Z,100491.66
2018-06-01T20:34:37.049Z,100491.00
2018-06-01T20:37:04.506Z,100491.94
2018-06-01T20:39:31.980Z,100491.27
2018-06-01T20:41:59.428Z,100491.60
2018-06-01T20:44:27.185Z,100495.98
2018-06-01T20:46:54.701Z,100492.62
2018-06-01T20:49:22.157Z,100491.45
2018-06-01T20:51:49.644Z,100486.23
2018-06-01T20:54:17.089Z,100491.20
2018-06-01T20:56:44.673Z,100496.71
2018-06-01T20:59:12.108Z,100497.13
2018-06-01T21:01:39.560Z,100500.98
2018-06-01T21:04:07.028Z,100506.38
2018-06-01T21:06:34.483Z,100509.50
2018-06-01T21:09:02.392Z,100507.45
2018-06-01T21:11:29.844Z,100504.00
2018-06-01T21:13:57.297Z,100502.89
2018-06-01T21:16:24.776Z,100508.09
2018-06-01T21:18:52.220Z,100508.31
2018-06-01T21:21:19.755Z,100511.02
2018-06-01T21:23:47.219Z,100501.37
2018-06-01T21:26:14.669Z,100502.70
2018-06-01T21:28:42.179Z,100500.23
2018-06-01T21:31:09.632Z,100504.99
2018-06-01T21:33:37.500Z,100505.40
2018-06-01T21:36:04.953Z,100504.15
2018-06-01T21:38:32.416Z,100500.88
2018-06-01T21:40:59.898Z,100503.84
2018-06-01T21:43:27.339Z,100508.77
2018-06-01T21:45:55.057Z,100508.98
2018-06-01T21:48:22.531Z,100515.20
2018-06-01T21:50:49.982Z,100507.20
2018-06-01T21:53:17.450Z,100502.28
2018-06-01T21:55:44.908Z,100503.90
2018-06-01T21:58:12.619Z,100501.27
2018-06-01T22:00:40.084Z,100503.32
2018-06-01T22:03:07.544Z,100513.30
2018-06-01T22:05:35.016Z,100506.59
2018-06-01T22:08:02.460Z,100511.23
2018-06-01T22:10:30.160Z,100505.11
2018-06-01T22:12:57.615Z,100515.28
2018-06-01T22:15:25.064Z,100516.57
2018-06-01T22:17:52.532Z,100521.26
2018-06-01T22:20:19.988Z,100518.45
2018-06-01T22:22:47.707Z,100518.53
2018-06-01T22:25:15.173Z,100519.98
2018-06-01T22:27:42.639Z,100517.56
2018-06-01T22:30:10.103Z,100513.75
2018-06-01T22:32:37.560Z,100519.65
2018-06-01T22:35:05.260Z,100519.08
2018-06-01T22:37:32.792Z,100521.14
2018-06-01T22:40:00.260Z,100524.19
2018-06-01T22:42:27.724Z,100527.84
2018-06-01T22:44:55.202Z,100530.71
2018-06-01T22:47:22.820Z,100528.98
2018-06-01T22:49:50.287Z,100528.89
2018-06-01T22:52:17.731Z,100528.59
2018-06-01T22:54:45.201Z,100532.97
2018-06-01T22:57:12.657Z,100536.05
2018-06-01T22:59:40.137Z,100538.80
2018-06-01T23:02:07.584Z,100537.86
2018-06-01T23:04:35.035Z,100544.59
2018-06-01T23:07:02.523Z,100542.45
2018-06-01T23:09:29.972Z,100537.09
2018-06-01T23:11:57.531Z,100539.03
2018-06-01T23:14:24.981Z,100546.34
2018-06-01T23:16:52.432Z,100546.25
2018-06-01T23:19:19.915Z,100541.00
2018-06-01T23:21:47.364Z,100536.24
2018-06-01T23:24:14.979Z,100530.83
2018-06-01T23:26:42.441Z,100531.79
2018-06-01T23:29:09.888Z,100529.25
2018-06-01T23:31:37.353Z,100531.20
2018-06-01T23:34:04.820Z,100530.44
2018-06-01T23:36:32.619Z,100531.79
2018-06-01T23:39:00.073Z,100533.52
2018-06-01T23:41:27.548Z,100533.52
2018-06-01T23:43:55.019Z,100535.54
2018-06-01T23:46:22.495Z,100527.53
2018-06-01T23:48:50.179Z,100527.27
2018-06-01T23:51:17.624Z,100522.90
2018-06-01T23:53:45.080Z,100527.76
2018-06-01T23:56:12.551Z,100517.67
2018-06-01T23:58:40.016Z,100515.66
